Time;durP1;ratioP1;P1;durP2;ratioP2;P2;SDS_P1;SDS_P2;PMS_P1;PMS_P2;Temp;Humidity;BMP_temperature;BMP_pressure;BME280_temperature;BME280_humidity;BME280_pressure;Samples;Min_cycle;Max_cycle;Signal;HPM_P1;HPM_P2
2021/09/30 00:00:11;;;;;;;1.50;1.30;;;10.00;99.90;;;;;;5013613;28;20859;-64
2021/09/30 00:02:36;;;;;;;1.53;1.20;;;10.00;99.90;;;;;;5013924;28;20440;-64
2021/09/30 00:05:04;;;;;;;6.50;1.73;;;10.00;99.90;;;;;;5013977;28;20793;-64
2021/09/30 00:07:29;;;;;;;2.60;1.40;;;10.00;99.90;;;;;;5013332;28;20172;-64
2021/09/30 00:09:55;;;;;;;2.30;1.30;;;10.00;99.90;;;;;;5013572;28;20794;-64
2021/09/30 00:12:25;;;;;;;4.03;1.20;;;10.00;99.90;;;;;;5013150;28;20175;-64
2021/09/30 00:15:05;;;;;;;2.70;1.57;;;9.90;99.90;;;;;;5013539;28;20977;-64
2021/09/30 00:47:03;;;;;;;1.70;1.57;;;9.50;99.90;;;;;;5011549;28;20440;-64
2021/09/30 00:52:27;;;;;;;3.27;1.63;;;9.30;99.90;;;;;;5006482;28;20488;-64
2021/09/30 00:55:16;;;;;;;3.83;1.67;;;9.20;99.90;;;;;;5012699;28;20802;-64
2021/09/30 02:26:58;;;;;;;1.87;1.70;;;8.80;99.90;;;;;;4998770;28;20423;-64
2021/09/30 02:58:59;;;;;;;2.20;2.03;;;8.80;99.90;;;;;;5015497;28;20474;-64
2021/09/30 03:01:27;;;;;;;1.50;1.40;;;8.70;99.90;;;;;;5015634;28;20453;-64
2021/09/30 03:03:55;;;;;;;1.70;1.30;;;8.70;99.90;;;;;;5017205;28;20452;-64
2021/09/30 03:06:21;;;;;;;1.70;1.33;;;8.70;99.90;;;;;;5025675;28;20430;-64
2021/09/30 03:08:51;;;;;;;4.47;1.70;;;8.60;99.90;;;;;;5015233;28;20422;-64
2021/09/30 03:11:20;;;;;;;3.40;1.30;;;8.60;99.90;;;;;;5015446;28;20437;-64
2021/09/30 03:13:48;;;;;;;9.10;1.67;;;8.60;99.90;;;;;;5015308;28;20524;-65
2021/09/30 03:23:45;;;;;;;5.40;2.47;;;8.50;99.90;;;;;;4995621;28;21023;-64
2021/09/30 03:26:11;;;;;;;1.67;1.57;;;8.40;99.90;;;;;;4995734;28;20414;-64
2021/09/30 03:28:39;;;;;;;2.83;1.63;;;8.40;99.90;;;;;;4995344;28;20606;-64
2021/09/30 03:31:05;;;;;;;3.77;2.73;;;8.40;99.90;;;;;;4995578;28;20431;-64
2021/09/30 03:33:31;;;;;;;2.70;1.77;;;8.50;99.90;;;;;;5013267;28;20461;-64
2021/09/30 03:35:57;;;;;;;2.20;2.00;;;8.50;99.90;;;;;;5032463;28;20483;-64
2021/09/30 03:38:23;;;;;;;4.23;1.50;;;8.50;99.90;;;;;;5021644;28;20641;-64
2021/09/30 03:40:49;;;;;;;1.77;1.33;;;8.50;99.90;;;;;;5033051;28;20202;-64
2021/09/30 03:43:15;;;;;;;1.53;1.43;;;8.50;99.90;;;;;;5023394;28;20449;-64
2021/09/30 03:45:40;;;;;;;2.73;1.80;;;8.50;99.90;;;;;;5032743;28;20783;-64
2021/09/30 03:48:07;;;;;;;3.53;1.70;;;8.50;99.90;;;;;;5025448;28;20175;-64
2021/09/30 03:50:42;;;;;;;2.17;2.07;;;8.50;99.90;;;;;;5026171;28;20231;-64
2021/09/30 03:53:57;;;;;;;1.80;1.70;;;8.40;99.90;;;;;;5023211;28;20445;-64
2021/09/30 03:56:03;;;;;;;3.53;1.70;;;8.30;99.90;;;;;;4987772;28;20430;-64
2021/09/30 04:01:15;;;;;;;1.67;1.57;;;8.30;99.90;;;;;;5000179;28;20480;-64
2021/09/30 04:03:41;;;;;;;2.30;1.90;;;8.30;99.90;;;;;;5025416;28;20449;-64
2021/09/30 04:06:06;;;;;;;11.57;1.70;;;8.20;99.90;;;;;;5014613;28;20467;-64
2021/09/30 04:08:32;;;;;;;2.93;1.70;;;8.20;99.90;;;;;;5016258;28;20179;-64
2021/09/30 04:10:57;;;;;;;4.10;2.30;;;8.20;99.90;;;;;;5021652;28;20182;-64
2021/09/30 04:13:23;;;;;;;3.63;1.63;;;8.20;99.90;;;;;;5019080;28;20225;-64
2021/09/30 04:15:50;;;;;;;2.73;1.90;;;8.20;99.90;;;;;;5033152;28;20186;-64
2021/09/30 04:18:19;;;;;;;4.30;1.97;;;8.10;99.90;;;;;;5016333;28;20175;-64
2021/09/30 04:20:44;;;;;;;2.23;1.70;;;8.10;99.90;;;;;;5013122;28;20465;-64
2021/09/30 04:23:10;;;;;;;5.80;2.50;;;8.10;99.90;;;;;;5013649;28;20457;-64
2021/09/30 04:25:37;;;;;;;1.67;1.50;;;8.10;99.90;;;;;;5013648;28;20167;-64
2021/09/30 04:28:03;;;;;;;2.43;1.60;;;8.10;99.90;;;;;;5013390;28;20179;-64
2021/09/30 04:30:28;;;;;;;2.40;1.20;;;8.10;99.90;;;;;;5012606;28;20437;-64
2021/09/30 04:32:54;;;;;;;2.60;1.57;;;8.10;99.90;;;;;;5013471;28;20460;-64
2021/09/30 04:35:19;;;;;;;1.77;1.67;;;8.10;99.90;;;;;;5012247;23;20274;-65
2021/09/30 04:37:45;;;;;;;1.73;1.40;;;8.10;99.90;;;;;;4993038;28;20683;-65
2021/09/30 04:40:11;;;;;;;6.93;1.80;;;8.10;99.90;;;;;;4994047;28;20207;-65
2021/09/30 04:42:36;;;;;;;2.17;1.60;;;8.10;99.90;;;;;;4993934;28;20176;-65
2021/09/30 04:45:03;;;;;;;2.80;1.67;;;8.00;99.90;;;;;;4993377;28;20446;-64
2021/09/30 04:47:29;;;;;;;2.10;1.53;;;8.10;99.90;;;;;;4993382;28;20870;-65
2021/09/30 04:49:54;;;;;;;1.50;1.40;;;8.00;99.90;;;;;;4984367;28;20438;-65
2021/09/30 04:52:20;;;;;;;3.23;1.67;;;8.00;99.90;;;;;;4993506;28;20180;-65
2021/09/30 04:54:46;;;;;;;2.43;2.17;;;7.90;99.90;;;;;;4993512;28;20282;-65
2021/09/30 04:57:12;;;;;;;2.13;1.60;;;7.90;99.90;;;;;;4993040;28;20195;-65
2021/09/30 04:59:38;;;;;;;4.10;2.10;;;7.90;99.90;;;;;;4993427;28;21026;-65
2021/09/30 05:02:03;;;;;;;1.77;1.63;;;7.90;99.90;;;;;;4993604;28;20180;-65
2021/09/30 05:04:29;;;;;;;1.63;1.50;;;7.90;99.90;;;;;;4993429;28;20208;-64
2021/09/30 05:06:55;;;;;;;2.20;1.70;;;7.90;99.90;;;;;;4993140;28;20180;-66
2021/09/30 05:09:23;;;;;;;1.93;1.70;;;7.90;99.90;;;;;;4990575;28;20172;-66
2021/09/30 05:11:52;;;;;;;2.03;1.93;;;7.80;99.90;;;;;;4993180;28;21206;-64
2021/09/30 05:14:18;;;;;;;1.80;1.50;;;7.90;99.90;;;;;;4992887;28;20447;-65
2021/09/30 05:16:43;;;;;;;2.07;1.50;;;7.80;99.90;;;;;;4988839;28;20432;-65
2021/09/30 05:19:09;;;;;;;2.13;1.63;;;7.80;99.90;;;;;;4992718;28;20442;-64
2021/09/30 05:21:34;;;;;;;5.83;2.63;;;7.70;99.90;;;;;;4992884;28;20176;-65
2021/09/30 05:24:00;;;;;;;3.00;2.23;;;7.70;99.90;;;;;;4993141;28;20210;-66
2021/09/30 05:26:27;;;;;;;1.73;1.63;;;7.60;99.90;;;;;;4992905;28;20552;-65
2021/09/30 05:28:54;;;;;;;7.20;4.07;;;7.60;99.90;;;;;;4992493;28;20175;-64
2021/09/30 05:31:19;;;;;;;4.53;2.00;;;7.50;99.90;;;;;;4992882;28;20525;-65
2021/09/30 05:33:45;;;;;;;2.30;2.20;;;7.60;99.90;;;;;;4992697;28;20458;-67
2021/09/30 05:36:10;;;;;;;2.13;1.30;;;7.60;99.90;;;;;;4988272;28;20722;-65
2021/09/30 05:38:36;;;;;;;3.90;1.80;;;7.70;99.90;;;;;;4992469;28;20171;-65
2021/09/30 05:41:03;;;;;;;3.93;1.93;;;7.80;99.90;;;;;;4992757;28;20209;-65
2021/09/30 05:43:34;;;;;;;2.67;1.90;;;7.80;99.90;;;;;;4985363;28;20263;-65
2021/09/30 05:46:01;;;;;;;1.80;1.70;;;7.80;99.90;;;;;;4992426;28;20542;-65
2021/09/30 05:48:27;;;;;;;2.17;1.63;;;7.80;99.90;;;;;;4992412;28;20467;-65
2021/09/30 05:50:53;;;;;;;3.83;2.10;;;7.80;99.90;;;;;;4992383;28;20967;-64
2021/09/30 05:53:20;;;;;;;1.70;1.60;;;7.80;99.90;;;;;;4986170;28;20554;-65
2021/09/30 05:55:46;;;;;;;6.27;1.93;;;7.90;99.90;;;;;;4992033;28;20434;-66
2021/09/30 05:58:12;;;;;;;3.90;2.10;;;7.90;99.90;;;;;;4992160;28;20434;-66
2021/09/30 06:00:50;;;;;;;6.60;2.50;;;8.00;99.90;;;;;;4990595;28;20529;-65
2021/09/30 06:14:26;;;;;;;3.40;2.77;;;8.60;99.90;;;;;;4991315;28;20453;-65
2021/09/30 06:16:53;;;;;;;5.37;3.47;;;8.50;99.90;;;;;;4992356;28;20534;-65
2021/09/30 06:19:22;;;;;;;3.83;3.50;;;8.80;99.90;;;;;;4992247;28;20792;-66
2021/09/30 06:21:52;;;;;;;4.37;3.40;;;9.00;99.90;;;;;;4992508;28;20427;-65
2021/09/30 06:24:20;;;;;;;8.47;3.63;;;9.20;99.90;;;;;;4992164;28;20516;-65
2021/09/30 06:26:47;;;;;;;3.63;2.70;;;9.30;99.90;;;;;;4991978;28;20469;-65
2021/09/30 06:29:13;;;;;;;4.30;2.77;;;9.40;99.90;;;;;;4988028;28;20439;-67
2021/09/30 06:31:38;;;;;;;3.27;2.93;;;9.60;99.90;;;;;;4991253;28;20458;-65
2021/09/30 06:34:04;;;;;;;2.90;2.70;;;9.90;99.90;;;;;;4996078;28;20469;-65
2021/09/30 06:36:30;;;;;;;3.90;3.20;;;10.10;99.90;;;;;;4996304;28;20190;-65
2021/09/30 06:38:56;;;;;;;3.10;2.70;;;10.20;99.90;;;;;;4995550;28;20760;-65
2021/09/30 06:41:21;;;;;;;4.67;3.20;;;10.40;99.90;;;;;;4996278;28;20282;-65
2021/09/30 06:43:47;;;;;;;5.20;2.80;;;10.60;99.90;;;;;;4994760;28;20563;-66
2021/09/30 06:46:12;;;;;;;3.43;2.50;;;10.80;99.90;;;;;;4995995;28;20198;-65
2021/09/30 06:48:38;;;;;;;3.70;2.40;;;11.00;99.90;;;;;;4995764;28;20187;-66
2021/09/30 06:51:04;;;;;;;3.93;2.60;;;11.30;99.90;;;;;;4995855;28;20195;-66
2021/09/30 06:53:30;;;;;;;7.03;2.83;;;11.50;99.90;;;;;;4999837;28;20167;-65
2021/09/30 06:56:00;;;;;;;2.77;1.83;;;11.70;99.90;;;;;;5001409;28;20426;-65
2021/09/30 06:58:26;;;;;;;3.27;2.30;;;12.00;99.90;;;;;;4995659;28;20738;-65
2021/09/30 07:00:56;;;;;;;3.00;2.40;;;11.90;99.90;;;;;;4995853;28;20517;-65
2021/09/30 07:03:27;;;;;;;2.23;2.03;;;12.10;99.90;;;;;;4995636;28;20199;-65
2021/09/30 07:05:53;;;;;;;5.10;2.10;;;12.40;99.90;;;;;;4995614;28;20854;-67
2021/09/30 07:08:20;;;;;;;2.90;1.80;;;12.50;99.90;;;;;;4995259;28;20517;-66
2021/09/30 07:10:46;;;;;;;6.10;2.00;;;12.50;99.90;;;;;;4995457;28;20203;-66
2021/09/30 07:13:12;;;;;;;4.70;1.60;;;12.80;99.90;;;;;;4998121;28;20998;-65
2021/09/30 07:15:38;;;;;;;3.43;1.60;;;13.00;99.90;;;;;;4995544;28;20462;-66
2021/09/30 07:18:11;;;;;;;3.90;1.53;;;13.20;99.90;;;;;;5000626;28;20175;-65
2021/09/30 07:20:36;;;;;;;3.93;1.50;;;12.90;99.90;;;;;;4997751;28;20184;-66
2021/09/30 07:23:02;;;;;;;5.17;1.70;;;13.00;99.90;;;;;;4997444;28;20530;-65
2021/09/30 07:25:27;;;;;;;4.90;2.57;;;12.90;99.90;;;;;;4995368;28;20223;-65
2021/09/30 07:27:53;;;;;;;1.80;1.70;;;12.90;99.90;;;;;;5003773;28;20233;-66
2021/09/30 07:30:18;;;;;;;2.33;1.77;;;13.00;99.90;;;;;;5000165;28;20246;-65
2021/09/30 07:32:44;;;;;;;2.17;1.33;;;13.20;99.90;;;;;;5002600;28;20222;-65
2021/09/30 07:35:10;;;;;;;3.13;2.50;;;13.30;99.90;;;;;;4998290;28;20210;-65
2021/09/30 07:37:35;;;;;;;3.40;1.63;;;13.60;99.90;;;;;;4999261;28;20659;-67
2021/09/30 07:40:02;;;;;;;7.07;1.53;;;13.70;99.90;;;;;;5003670;28;20183;-66
2021/09/30 07:42:28;;;;;;;2.50;1.70;;;13.80;99.90;;;;;;4985608;28;20180;-66
2021/09/30 07:44:54;;;;;;;2.97;1.40;;;14.10;99.90;;;;;;4998988;28;20978;-65
2021/09/30 07:47:19;;;;;;;1.90;1.70;;;14.10;99.90;;;;;;5004640;28;20269;-68
2021/09/30 07:49:45;;;;;;;4.13;1.73;;;14.40;99.90;;;;;;5002821;28;20199;-68
2021/09/30 07:52:10;;;;;;;5.83;2.30;;;14.50;99.90;;;;;;4998390;28;20183;-65
2021/09/30 07:54:36;;;;;;;5.20;2.83;;;14.60;99.90;;;;;;4994664;28;20196;-65
2021/09/30 07:57:02;;;;;;;3.30;1.70;;;14.90;99.90;;;;;;4994524;28;20180;-66
2021/09/30 07:59:28;;;;;;;11.50;7.57;;;14.90;99.90;;;;;;4994113;28;20195;-65
2021/09/30 08:01:53;;;;;;;4.70;3.10;;;14.90;99.90;;;;;;4994396;28;20944;-65
2021/09/30 08:04:19;;;;;;;8.80;2.60;;;15.00;99.90;;;;;;4994464;28;20246;-65
2021/09/30 08:06:44;;;;;;;2.67;2.00;;;15.00;99.90;;;;;;4988969;28;20340;-63
2021/09/30 08:09:10;;;;;;;4.30;1.50;;;15.30;99.90;;;;;;4987354;28;20648;-66
2021/09/30 08:11:35;;;;;;;4.43;1.80;;;15.50;99.90;;;;;;4993949;28;20196;-67
2021/09/30 08:14:01;;;;;;;2.03;1.50;;;15.70;99.90;;;;;;4994425;28;20188;-67
2021/09/30 08:16:27;;;;;;;3.80;2.10;;;15.80;99.90;;;;;;4994092;28;20202;-68
2021/09/30 08:18:53;;;;;;;5.77;2.33;;;16.20;99.90;;;;;;4994088;28;20183;-67
2021/09/30 08:21:19;;;;;;;2.30;1.50;;;16.40;99.90;;;;;;4993487;28;20434;-67
2021/09/30 08:23:45;;;;;;;3.20;1.60;;;16.80;99.90;;;;;;4994792;28;20454;-66
2021/09/30 08:26:13;;;;;;;2.50;1.83;;;17.00;99.90;;;;;;4994427;28;20962;-66
2021/09/30 08:28:39;;;;;;;1.83;1.50;;;17.10;99.90;;;;;;4993837;28;20462;-67
2021/09/30 08:31:05;;;;;;;3.80;1.40;;;17.10;99.90;;;;;;4989551;28;20455;-66
2021/09/30 08:33:32;;;;;;;2.60;1.93;;;17.20;99.90;;;;;;4993728;28;20450;-68
2021/09/30 08:35:58;;;;;;;2.63;1.50;;;17.10;99.90;;;;;;4984092;28;20435;-66
2021/09/30 08:38:24;;;;;;;3.13;2.10;;;17.30;99.90;;;;;;4988419;28;20431;-66
2021/09/30 08:40:51;;;;;;;3.43;1.53;;;16.90;99.90;;;;;;4989832;28;20430;-66
2021/09/30 08:43:17;;;;;;;2.23;1.73;;;16.40;99.90;;;;;;4993963;28;20261;-66
2021/09/30 08:45:43;;;;;;;2.90;2.00;;;16.10;99.90;;;;;;4994253;28;20513;-66
2021/09/30 08:48:09;;;;;;;2.60;1.63;;;16.90;99.90;;;;;;4993135;28;20250;-66
2021/09/30 08:50:40;;;;;;;4.37;2.37;;;17.60;98.50;;;;;;4980037;28;20294;-66
2021/09/30 08:53:08;;;;;;;4.93;2.37;;;17.70;98.20;;;;;;4994096;28;20172;-66
2021/09/30 08:55:34;;;;;;;2.43;1.83;;;16.90;99.10;;;;;;4992561;28;20461;-66
2021/09/30 08:58:03;;;;;;;6.53;1.27;;;16.50;99.30;;;;;;4992681;28;20438;-66
2021/09/30 09:00:29;;;;;;;3.53;1.43;;;16.20;99.90;;;;;;4993196;28;20936;-66
2021/09/30 09:02:55;;;;;;;1.87;1.33;;;16.40;99.90;;;;;;4993909;28;20456;-66
2021/09/30 09:05:21;;;;;;;4.33;2.10;;;16.80;99.50;;;;;;4993532;28;20489;-65
2021/09/30 09:08:04;;;;;;;3.07;1.27;;;17.80;98.60;;;;;;4993537;28;20602;-67
2021/09/30 09:10:35;;;;;;;2.60;1.63;;;19.70;97.40;;;;;;4988895;28;20536;-66
2021/09/30 09:13:06;;;;;;;2.30;1.70;;;21.60;98.10;;;;;;4993151;28;20430;-67
2021/09/30 09:15:42;;;;;;;1.47;1.37;;;21.50;96.00;;;;;;4993458;28;20458;-67
2021/09/30 09:18:14;;;;;;;4.60;1.17;;;22.80;94.00;;;;;;4993427;28;20492;-67
2021/09/30 09:20:41;;;;;;;2.20;1.90;;;23.70;91.80;;;;;;4992942;28;20445;-67
2021/09/30 09:23:10;;;;;;;3.40;1.50;;;23.20;90.80;;;;;;4992874;28;20431;-67
2021/09/30 09:25:35;;;;;;;2.57;1.60;;;22.10;90.30;;;;;;4992760;28;20450;-66
2021/09/30 09:28:01;;;;;;;3.53;1.40;;;21.00;92.10;;;;;;4992109;28;20438;-66
2021/09/30 09:30:47;;;;;;;1.60;1.43;;;20.70;92.60;;;;;;4992658;28;20246;-66
2021/09/30 09:33:21;;;;;;;1.60;0.87;;;21.10;90.60;;;;;;4992855;28;20176;-67
2021/09/30 09:35:50;;;;;;;3.03;0.87;;;21.90;89.20;;;;;;4992604;28;20434;-67
2021/09/30 09:38:16;;;;;;;4.03;2.20;;;23.30;85.50;;;;;;4992435;28;20426;-67
2021/09/30 09:40:42;;;;;;;3.23;2.67;;;24.50;82.20;;;;;;4992703;28;20427;-67
2021/09/30 09:43:41;;;;;;;2.10;1.50;;;25.90;75.30;;;;;;4992420;28;20435;-67
2021/09/30 09:46:08;;;;;;;2.83;2.00;;;26.10;69.70;;;;;;4992660;28;20430;-67
2021/09/30 09:48:34;;;;;;;2.20;1.43;;;25.10;71.40;;;;;;4992079;28;21089;-67
2021/09/30 09:51:04;;;;;;;1.93;1.30;;;25.70;70.80;;;;;;4992238;28;20462;-67
2021/09/30 09:53:31;;;;;;;2.80;1.67;;;25.30;65.30;;;;;;4992613;28;20430;-67
2021/09/30 09:56:09;;;;;;;1.97;1.13;;;23.30;67.40;;;;;;4992332;28;20427;-67
2021/09/30 09:58:43;;;;;;;1.83;1.20;;;21.00;72.10;;;;;;4991978;28;20441;-66
2021/09/30 10:01:08;;;;;;;2.57;1.30;;;20.50;77.40;;;;;;4991786;28;20438;-67
2021/09/30 10:03:34;;;;;;;3.23;1.87;;;20.40;76.50;;;;;;4992325;28;20451;-66
2021/09/30 10:06:02;;;;;;;2.70;1.53;;;20.70;76.70;;;;;;4990602;28;20188;-67
2021/09/30 10:08:29;;;;;;;3.57;1.63;;;21.10;75.50;;;;;;4972622;28;20182;-67
2021/09/30 10:10:56;;;;;;;5.30;1.50;;;21.50;74.70;;;;;;4986691;28;20450;-67
2021/09/30 10:13:24;;;;;;;3.10;1.30;;;21.70;74.00;;;;;;4992831;28;20823;-66
2021/09/30 10:15:54;;;;;;;1.40;1.07;;;21.60;72.50;;;;;;4991474;28;20453;-67
2021/09/30 10:18:22;;;;;;;3.73;3.40;;;21.00;73.10;;;;;;4991995;28;20431;-67
2021/09/30 10:20:48;;;;;;;1.93;1.63;;;20.80;76.60;;;;;;4991924;28;20431;-67
2021/09/30 10:23:24;;;;;;;2.00;1.77;;;22.80;71.70;;;;;;4988582;28;20471;-67
2021/09/30 10:25:52;;;;;;;6.97;2.10;;;23.70;68.00;;;;;;4984759;28;20941;-67
2021/09/30 10:28:18;;;;;;;3.33;1.77;;;23.10;68.30;;;;;;4991774;28;20442;-67
2021/09/30 10:30:49;;;;;;;6.30;1.60;;;23.10;65.60;;;;;;4991842;28;20459;-67
2021/09/30 10:33:22;;;;;;;5.43;1.50;;;23.20;64.60;;;;;;4991910;28;20255;-67
2021/09/30 10:35:53;;;;;;;2.00;1.10;;;23.40;67.40;;;;;;4984834;28;20470;-67
2021/09/30 10:38:24;;;;;;;3.03;1.17;;;24.20;62.90;;;;;;4985148;28;20446;-67
2021/09/30 10:41:06;;;;;;;4.50;1.40;;;23.40;62.50;;;;;;4989152;28;20468;-67
2021/09/30 10:43:44;;;;;;;1.67;1.23;;;22.20;64.80;;;;;;4989376;28;21049;-67
2021/09/30 10:46:32;;;;;;;2.37;1.80;;;21.40;65.60;;;;;;4978174;28;20438;-67
2021/09/30 10:48:58;;;;;;;4.73;1.77;;;22.10;67.50;;;;;;4990682;28;20439;-68
2021/09/30 10:51:23;;;;;;;3.83;1.30;;;25.30;64.30;;;;;;4987805;28;20477;-67
2021/09/30 10:53:50;;;;;;;4.73;1.33;;;26.10;57.20;;;;;;4988700;28;20195;-67
2021/09/30 10:56:29;;;;;;;1.73;1.10;;;24.50;59.20;;;;;;4987407;28;20170;-67
2021/09/30 10:58:59;;;;;;;2.57;1.27;;;26.00;59.10;;;;;;4991573;28;20441;-68
2021/09/30 11:01:25;;;;;;;2.90;1.13;;;28.00;52.70;;;;;;4991779;28;20438;-68
2021/09/30 11:04:02;;;;;;;3.53;0.90;;;30.10;47.60;;;;;;4991958;28;20469;-68
2021/09/30 11:06:28;;;;;;;1.30;1.17;;;28.70;46.40;;;;;;4990075;28;20187;-68
2021/09/30 11:09:17;;;;;;;1.57;1.20;;;29.30;46.60;;;;;;4982436;28;20935;-68
2021/09/30 11:11:45;;;;;;;0.97;0.93;;;29.10;44.70;;;;;;4977186;28;20220;-68
2021/09/30 11:14:10;;;;;;;1.40;1.20;;;28.60;44.40;;;;;;4985131;28;20450;-67
2021/09/30 11:16:41;;;;;;;1.20;1.10;;;25.90;46.10;;;;;;4991674;28;20966;-68
2021/09/30 11:19:38;;;;;;;2.40;2.20;;;26.10;45.70;;;;;;4994111;28;20175;-68
2021/09/30 11:22:05;;;;;;;6.90;6.30;;;28.30;45.90;;;;;;4991349;28;20581;-67
2021/09/30 11:24:33;;;;;;;3.03;2.73;;;29.70;42.00;;;;;;4992254;28;20507;-67
2021/09/30 11:26:59;;;;;;;3.03;1.33;;;27.60;42.30;;;;;;4993958;28;20435;-67
2021/09/30 11:29:25;;;;;;;3.07;1.70;;;25.90;43.50;;;;;;4994882;28;20437;-68
2021/09/30 11:31:54;;;;;;;5.60;2.00;;;25.70;44.90;;;;;;4995076;28;20172;-68
2021/09/30 11:34:22;;;;;;;1.73;1.00;;;27.80;44.60;;;;;;4993509;28;20597;-68
2021/09/30 11:36:48;;;;;;;2.10;1.57;;;28.00;44.20;;;;;;4994910;28;20430;-69
2021/09/30 11:39:14;;;;;;;4.00;1.90;;;29.70;43.00;;;;;;4994330;28;20772;-69
2021/09/30 11:41:42;;;;;;;2.20;1.40;;;29.40;42.30;;;;;;4985883;28;20470;-67
2021/09/30 11:44:13;;;;;;;1.13;1.00;;;29.50;41.10;;;;;;4990531;28;20458;-68
2021/09/30 11:46:39;;;;;;;3.20;1.43;;;29.20;41.40;;;;;;4991726;28;20434;-68
2021/09/30 11:49:07;;;;;;;4.03;0.87;;;27.80;42.40;;;;;;4979124;28;20435;-68
2021/09/30 11:51:41;;;;;;;1.03;0.90;;;29.00;41.80;;;;;;4995091;28;20179;-68
2021/09/30 11:54:32;;;;;;;2.40;0.90;;;27.20;42.00;;;;;;4995577;28;20458;-68
2021/09/30 11:56:58;;;;;;;5.00;1.10;;;25.40;43.90;;;;;;4992334;28;20489;-68
2021/09/30 11:59:25;;;;;;;1.80;1.43;;;24.50;44.80;;;;;;4986024;28;20434;-68
2021/09/30 12:01:52;;;;;;;2.07;1.37;;;23.10;44.80;;;;;;4986280;28;20242;-68
2021/09/30 12:04:38;;;;;;;1.80;0.90;;;23.70;44.20;;;;;;4990983;28;20508;-68
2021/09/30 12:07:04;;;;;;;1.63;0.80;;;26.30;41.70;;;;;;4994164;28;20521;-68
2021/09/30 12:09:35;;;;;;;2.00;1.00;;;28.50;43.10;;;;;;4994488;28;20999;-68
2021/09/30 12:12:05;;;;;;;1.63;1.00;;;30.50;41.20;;;;;;4996983;28;20641;-69
2021/09/30 12:14:35;;;;;;;1.47;1.00;;;30.40;40.00;;;;;;4995599;28;20541;-68
2021/09/30 12:17:03;;;;;;;2.70;1.00;;;30.60;40.40;;;;;;4994211;28;20458;-68
2021/09/30 12:19:37;;;;;;;2.40;1.13;;;31.90;37.80;;;;;;4994109;28;20467;-68
2021/09/30 12:22:09;;;;;;;1.23;0.93;;;31.20;38.10;;;;;;4993157;28;20434;-68
2021/09/30 12:24:35;;;;;;;1.53;1.30;;;30.90;37.70;;;;;;4993687;28;20454;-68
2021/09/30 12:27:04;;;;;;;1.90;0.90;;;31.00;38.30;;;;;;5000402;28;20827;-68
2021/09/30 12:29:29;;;;;;;1.83;1.20;;;31.80;36.80;;;;;;4991715;28;20518;-68
2021/09/30 12:32:06;;;;;;;2.23;1.00;;;30.50;37.10;;;;;;4994000;28;20518;-69
2021/09/30 12:34:33;;;;;;;1.57;0.90;;;31.30;37.90;;;;;;4993142;28;20230;-68
2021/09/30 12:36:58;;;;;;;1.30;1.20;;;33.10;35.80;;;;;;4993598;28;20427;-68
2021/09/30 12:39:29;;;;;;;2.13;1.27;;;33.70;35.70;;;;;;4993645;28;20441;-67
2021/09/30 12:42:14;;;;;;;2.17;1.70;;;35.50;34.70;;;;;;4994150;28;20180;-68
2021/09/30 12:44:43;;;;;;;2.27;1.17;;;35.90;33.20;;;;;;4993816;28;20442;-69
2021/09/30 12:47:26;;;;;;;2.00;1.33;;;36.40;33.30;;;;;;4993497;28;20418;-69
2021/09/30 12:50:21;;;;;;;1.23;1.00;;;37.30;33.00;;;;;;4983727;28;20794;-68
2021/09/30 12:53:01;;;;;;;3.27;1.40;;;33.80;34.60;;;;;;4992998;28;20525;-68
2021/09/30 12:55:27;;;;;;;1.30;1.20;;;34.70;34.30;;;;;;4993399;28;20450;-69
2021/09/30 12:57:53;;;;;;;3.30;1.70;;;33.50;35.40;;;;;;4993392;28;20433;-68
2021/09/30 13:00:21;;;;;;;2.20;1.23;;;33.40;35.00;;;;;;4993498;28;20466;-69
2021/09/30 13:02:48;;;;;;;2.67;1.13;;;34.00;34.40;;;;;;4993429;28;20441;-68
2021/09/30 13:05:15;;;;;;;3.67;1.27;;;35.00;33.80;;;;;;4988886;28;20505;-66
2021/09/30 13:07:43;;;;;;;3.30;1.60;;;34.00;34.20;;;;;;4993027;28;20438;-69
2021/09/30 13:10:10;;;;;;;1.37;1.17;;;35.50;34.60;;;;;;4993496;28;20434;-69
2021/09/30 13:12:35;;;;;;;1.87;1.03;;;35.60;32.80;;;;;;4993598;28;20802;-69
2021/09/30 13:15:01;;;;;;;1.10;1.00;;;36.80;32.50;;;;;;4993160;28;20450;-69
2021/09/30 13:17:30;;;;;;;2.03;0.97;;;36.80;31.60;;;;;;4993209;28;20685;-69
2021/09/30 13:20:06;;;;;;;1.50;1.20;;;37.00;31.40;;;;;;4993484;28;20196;-68
2021/09/30 13:22:37;;;;;;;1.27;1.17;;;36.80;31.40;;;;;;4993300;28;20440;-67
2021/09/30 13:25:12;;;;;;;2.30;1.10;;;37.70;31.30;;;;;;4993037;28;20446;-70
2021/09/30 13:27:40;;;;;;;3.60;2.10;;;37.50;31.10;;;;;;4992492;28;20434;-68
2021/09/30 13:30:09;;;;;;;1.73;1.10;;;37.50;30.10;;;;;;4993017;28;20438;-69
2021/09/30 13:32:35;;;;;;;3.30;1.70;;;36.30;31.20;;;;;;4993054;28;20438;-67
2021/09/30 13:35:01;;;;;;;1.67;1.57;;;35.40;30.90;;;;;;4992736;28;20467;-68
2021/09/30 13:37:28;;;;;;;2.30;1.43;;;32.40;32.80;;;;;;4992658;28;20500;-68
2021/09/30 13:39:56;;;;;;;1.17;1.07;;;31.70;33.50;;;;;;4992953;28;20488;-68
2021/09/30 13:42:27;;;;;;;1.40;1.30;;;31.50;33.60;;;;;;4992730;28;20435;-68
2021/09/30 13:44:52;;;;;;;3.43;1.63;;;29.40;35.30;;;;;;4992672;28;21018;-68
2021/09/30 13:47:18;;;;;;;1.67;1.53;;;27.40;38.40;;;;;;4992312;28;20430;-67
2021/09/30 13:49:44;;;;;;;1.93;1.20;;;26.70;39.60;;;;;;4992792;28;20226;-68
2021/09/30 13:52:09;;;;;;;2.63;1.27;;;24.40;42.30;;;;;;4992786;28;20194;-68
2021/09/30 13:54:35;;;;;;;1.23;0.90;;;24.20;43.80;;;;;;4992488;28;20254;-68
2021/09/30 13:57:01;;;;;;;1.20;0.90;;;23.50;44.00;;;;;;4992487;28;20176;-66
2021/09/30 13:59:27;;;;;;;2.00;1.33;;;23.20;44.40;;;;;;4978675;28;20224;-68
2021/09/30 14:01:52;;;;;;;1.00;0.83;;;22.30;44.90;;;;;;4992338;28;20195;-68
2021/09/30 14:04:18;;;;;;;1.83;1.00;;;21.80;46.70;;;;;;4992456;28;20338;-67
2021/09/30 14:06:44;;;;;;;4.73;1.03;;;21.00;42.40;;;;;;4992485;28;20175;-65
2021/09/30 14:09:09;;;;;;;1.53;1.00;;;20.80;42.60;;;;;;4985036;28;20450;-67
2021/09/30 14:11:35;;;;;;;1.03;1.00;;;20.50;43.90;;;;;;4992482;28;20176;-67
2021/09/30 14:14:01;;;;;;;1.77;1.20;;;20.30;44.40;;;;;;4992237;28;20207;-67
2021/09/30 14:16:26;;;;;;;2.73;1.33;;;20.10;44.90;;;;;;4992397;28;20226;-67
2021/09/30 14:18:52;;;;;;;2.83;1.00;;;19.90;45.70;;;;;;4992129;28;20175;-67
2021/09/30 14:21:18;;;;;;;1.10;1.00;;;20.00;46.00;;;;;;4992118;28;20282;-67
2021/09/30 14:23:45;;;;;;;1.83;1.57;;;19.90;46.00;;;;;;4992384;28;20287;-66
2021/09/30 14:26:11;;;;;;;2.90;2.03;;;19.70;46.80;;;;;;4992470;28;20446;-67
2021/09/30 14:28:37;;;;;;;3.63;2.17;;;19.50;47.10;;;;;;4991866;28;20427;-67
2021/09/30 14:31:04;;;;;;;2.50;1.30;;;19.30;47.20;;;;;;4992260;28;20183;-66
2021/09/30 14:33:30;;;;;;;2.40;1.40;;;19.50;47.40;;;;;;4991743;28;20529;-66
2021/09/30 14:35:56;;;;;;;1.50;1.40;;;19.40;47.80;;;;;;4992270;28;20433;-67
2021/09/30 14:38:22;;;;;;;1.83;1.50;;;19.30;47.70;;;;;;4992089;28;20423;-70
2021/09/30 14:40:50;;;;;;;2.10;1.77;;;19.40;47.60;;;;;;4992463;28;20967;-66
2021/09/30 14:43:22;;;;;;;3.43;1.50;;;19.40;47.80;;;;;;4992159;28;20431;-67
2021/09/30 14:45:49;;;;;;;4.10;1.30;;;19.40;47.50;;;;;;4991995;28;20425;-66
2021/09/30 14:48:15;;;;;;;2.63;1.57;;;19.20;48.00;;;;;;4991803;28;20438;-66
2021/09/30 14:50:41;;;;;;;3.07;1.50;;;19.20;48.20;;;;;;4992099;28;20437;-67
2021/09/30 14:53:08;;;;;;;1.90;1.57;;;19.00;48.50;;;;;;4993044;28;20998;-67
2021/09/30 14:55:34;;;;;;;1.97;1.17;;;18.80;49.30;;;;;;4996066;28;20454;-66
2021/09/30 14:58:00;;;;;;;4.27;1.70;;;18.80;48.80;;;;;;4995601;28;21030;-67
2021/09/30 15:00:26;;;;;;;4.27;1.47;;;18.50;49.10;;;;;;4995974;28;20553;-67
2021/09/30 15:02:51;;;;;;;3.73;1.30;;;18.30;49.00;;;;;;4995709;28;20175;-66
2021/09/30 15:05:17;;;;;;;1.87;1.37;;;18.20;49.20;;;;;;4995757;28;20565;-66
2021/09/30 15:07:44;;;;;;;2.50;1.30;;;18.10;49.80;;;;;;4995497;28;20175;-66
2021/09/30 15:10:10;;;;;;;1.43;1.33;;;18.00;50.50;;;;;;4995276;28;20439;-66
2021/09/30 15:12:35;;;;;;;4.20;3.80;;;18.00;52.00;;;;;;4995792;28;20489;-66
2021/09/30 15:15:01;;;;;;;1.97;1.87;;;17.90;53.20;;;;;;4995250;28;21059;-67
2021/09/30 15:17:34;;;;;;;2.40;1.63;;;17.80;52.60;;;;;;4995437;28;20728;-67
2021/09/30 15:20:13;;;;;;;3.00;2.20;;;17.70;52.10;;;;;;4995399;28;20848;-67
2021/09/30 15:22:40;;;;;;;4.00;1.50;;;17.50;52.00;;;;;;4995700;28;20439;-66
2021/09/30 15:25:07;;;;;;;1.40;1.20;;;17.20;52.80;;;;;;4995346;28;20911;-67
2021/09/30 15:27:35;;;;;;;1.90;1.30;;;17.20;52.50;;;;;;4995164;28;20469;-67
2021/09/30 15:30:00;;;;;;;2.27;1.50;;;17.30;54.90;;;;;;4995493;28;20422;-67
2021/09/30 15:32:26;;;;;;;3.10;1.00;;;17.10;55.20;;;;;;4995233;28;20437;-66
2021/09/30 15:34:52;;;;;;;3.13;1.60;;;17.00;54.10;;;;;;4994838;28;20211;-67
2021/09/30 15:37:18;;;;;;;2.57;1.80;;;17.00;55.50;;;;;;4994936;28;20176;-66
2021/09/30 15:39:44;;;;;;;3.17;1.33;;;16.70;56.20;;;;;;4995160;28;20187;-66
2021/09/30 15:42:13;;;;;;;1.47;1.10;;;16.50;56.90;;;;;;4995041;28;20430;-67
2021/09/30 15:44:39;;;;;;;2.00;1.60;;;16.50;57.60;;;;;;4994830;28;20199;-67
2021/09/30 15:47:05;;;;;;;1.57;1.47;;;16.40;58.10;;;;;;4995024;28;20427;-66